Hyattsville, Maryland
Current Conditions -  °F | °C
As of 3:10 PM on Thursday 18 Dec 2014 (Local Time) from KCGS Reporting Station
Clear Clear  
Wind Chill: 34°   Ceiling: Unl
Heat Index: 39°   Visibility: 10mi
Dew Point: 23°   Wind: 8mph
Humidity: 52%   Direction: 300°WNW
Pressure: 30.09"   Gusts: 17mph
Location:  38.95°N, 76.94°W
Report Text: KCGS 182010Z AUTO 30007G15KT 10SM CLR 04/M05 A3009 RMK AO1
Loading
Personal Weather Stations






























Interactive Weather Map New forecast layout! Learn more

10-Day Weather Forecast

Advertisements
Track Severe Weather on mobile